TLV1 LLRS-LLHZ
Flight info
| Callsign | TLV1 |
|---|---|
| Flight time | N/A |
| Altitude | 4000 |
| Route | LSA/HELI ROUTES |
| Aircraft | AS50/L-V/N |
Departure
| Time | N/A |
|---|---|
| Airport | Rishon Lezion Airfield (LLRS) |
Arrival
| Time | 2026-04-15 18:48 |
|---|---|
| Airport | Herzliya Airport (LLHZ) |
| Time | Latitude | Longitude | Altitude | Speed | Heading |
|---|---|---|---|---|---|
| 2026-04-15 18:34 | 31.96725 | 34.75211 | 62 ft | 0 kts | 12° |
| 2026-04-15 18:39 | 31.96727 | 34.75210 | 75 ft | 1 kts | 6° |
| 2026-04-15 18:40 | 31.96737 | 34.75325 | 147 ft | 53 kts | 127° |
| 2026-04-15 18:40 | 31.96694 | 34.75480 | 308 ft | 74 kts | 3° |
| 2026-04-15 18:40 | 31.97251 | 34.75098 | 439 ft | 114 kts | 320° |
| 2026-04-15 18:40 | 31.97901 | 34.74407 | 387 ft | 135 kts | 315° |
| 2026-04-15 18:41 | 31.98617 | 34.73590 | 374 ft | 147 kts | 318° |
| 2026-04-15 18:41 | 31.99491 | 34.72931 | 373 ft | 154 kts | 343° |
| 2026-04-15 18:41 | 32.00543 | 34.72981 | 419 ft | 155 kts | 5° |
| 2026-04-15 18:41 | 32.01606 | 34.73183 | 479 ft | 154 kts | 12° |
| 2026-04-15 18:42 | 32.02664 | 34.73492 | 485 ft | 156 kts | 13° |
| 2026-04-15 18:42 | 32.03741 | 34.73739 | 362 ft | 165 kts | 5° |
| 2026-04-15 18:42 | 32.04834 | 34.74036 | 372 ft | 161 kts | 19° |
| 2026-04-15 18:42 | 32.05875 | 34.74568 | 301 ft | 163 kts | 25° |
| 2026-04-15 18:43 | 32.06851 | 34.75197 | 310 ft | 161 kts | 30° |
| 2026-04-15 18:43 | 32.07818 | 34.75832 | 339 ft | 158 kts | 27° |
| 2026-04-15 18:43 | 32.08826 | 34.76364 | 336 ft | 159 kts | 19° |
| 2026-04-15 18:43 | 32.09885 | 34.76744 | 347 ft | 160 kts | 12° |
| 2026-04-15 18:44 | 32.10972 | 34.77027 | 319 ft | 162 kts | 11° |
| 2026-04-15 18:44 | 32.12064 | 34.77322 | 366 ft | 158 kts | 15° |
| 2026-04-15 18:44 | 32.13074 | 34.77877 | 205 ft | 166 kts | 33° |
| 2026-04-15 18:44 | 32.14062 | 34.78569 | 175 ft | 161 kts | 18° |
| 2026-04-15 18:45 | 32.15111 | 34.78753 | 406 ft | 150 kts | 6° |
| 2026-04-15 18:45 | 32.16155 | 34.78920 | 440 ft | 152 kts | 8° |
| 2026-04-15 18:45 | 32.17206 | 34.79218 | 376 ft | 158 kts | 18° |
| 2026-04-15 18:45 | 32.18241 | 34.79622 | 401 ft | 157 kts | 15° |
| 2026-04-15 18:46 | 32.19301 | 34.79986 | 397 ft | 158 kts | 16° |
| 2026-04-15 18:46 | 32.20331 | 34.80374 | 481 ft | 154 kts | 17° |
| 2026-04-15 18:46 | 32.21343 | 34.80894 | 378 ft | 161 kts | 28° |
| 2026-04-15 18:46 | 32.22269 | 34.81581 | 463 ft | 157 kts | 32° |
| 2026-04-15 18:47 | 32.23175 | 34.82326 | 439 ft | 159 kts | 36° |
| 2026-04-15 18:47 | 32.23849 | 34.83336 | 471 ft | 157 kts | 55° |
| 2026-04-15 18:47 | 32.24295 | 34.84439 | 626 ft | 140 kts | 70° |
| 2026-04-15 18:47 | 32.24922 | 34.84613 | 349 ft | 93 kts | 54° |
| 2026-04-15 18:48 | 32.25041 | 34.84510 | 184 ft | 31 kts | 203° |
| 2026-04-15 18:48 | 32.24963 | 34.84498 | 82 ft | 13 kts | 206° |
| 2026-04-15 18:48 | 32.24951 | 34.84489 | 46 ft | 0 kts | 206° |
| 2026-04-15 18:49 | 32.24815 | 34.84608 | 181 ft | 62 kts | 131° |
| 2026-04-15 18:49 | 32.24463 | 34.85039 | 525 ft | 66 kts | 138° |
| 2026-04-15 18:50 | 32.24108 | 34.85424 | 500 ft | 72 kts | 133° |
| 2026-04-15 18:50 | 32.23697 | 34.85761 | 327 ft | 80 kts | 176° |
| 2026-04-15 18:50 | 32.23353 | 34.85417 | 495 ft | 76 kts | 267° |
| 2026-04-15 18:50 | 32.23789 | 34.85292 | 530 ft | 79 kts | 28° |
| 2026-04-15 18:51 | 32.23743 | 34.85793 | 331 ft | 113 kts | 175° |
| 2026-04-15 18:51 | 32.23012 | 34.85962 | 489 ft | 99 kts | 200° |
| 2026-04-15 18:51 | 32.23118 | 34.85717 | 489 ft | 76 kts | 88° |
| 2026-04-15 18:51 | 32.22564 | 34.85736 | 418 ft | 105 kts | 194° |
| 2026-04-15 18:52 | 32.21823 | 34.85407 | 428 ft | 126 kts | 207° |
| 2026-04-15 18:52 | 32.21062 | 34.84811 | 424 ft | 138 kts | 218° |
| 2026-04-15 18:52 | 32.20293 | 34.84049 | 376 ft | 147 kts | 220° |
| 2026-04-15 18:52 | 32.19466 | 34.83424 | 386 ft | 133 kts | 210° |
| 2026-04-15 18:53 | 32.18599 | 34.83177 | 291 ft | 120 kts | 185° |
| 2026-04-15 18:53 | 32.18110 | 34.83001 | 248 ft | 42 kts | 294° |
| 2026-04-15 18:53 | 32.18512 | 34.82855 | 243 ft | 81 kts | 15° |
| 2026-04-15 18:53 | 32.18827 | 34.83249 | 304 ft | 66 kts | 148° |
| 2026-04-15 18:54 | 32.18424 | 34.83167 | 204 ft | 50 kts | 193° |
| 2026-04-15 18:54 | 32.18179 | 34.83107 | 177 ft | 26 kts | 241° |
| 2026-04-15 18:54 | 32.18148 | 34.82957 | 110 ft | 12 kts | 243° |
| 2026-04-15 18:54 | 32.18154 | 34.82859 | 101 ft | 6 kts | 253° |
| 2026-04-15 18:55 | 32.18151 | 34.82843 | 93 ft | 0 kts | 260° |
| 2026-04-15 18:57 | 32.18151 | 34.82842 | 93 ft | 0 kts | 75° |